createdAt,value
2019-03-30T00:00:46.658Z,10.25
2019-03-30T00:03:18.172Z,9.70
2019-03-30T00:05:49.665Z,9.23
2019-03-30T00:08:21.203Z,9.48
2019-03-30T00:10:52.559Z,9.57
2019-03-30T00:13:23.958Z,10.43
2019-03-30T00:15:55.403Z,10.23
2019-03-30T00:18:26.801Z,9.50
2019-03-30T00:20:58.157Z,9.90
2019-03-30T00:23:29.559Z,9.87
2019-03-30T00:26:01.074Z,9.17
2019-03-30T00:28:32.591Z,10.43
2019-03-30T00:31:04.052Z,9.97
2019-03-30T00:33:35.561Z,9.83
2019-03-30T00:36:07.053Z,9.73
2019-03-30T00:38:38.720Z,10.03
2019-03-30T00:41:10.030Z,9.37
2019-03-30T00:43:41.527Z,9.60
2019-03-30T00:46:12.889Z,9.80
2019-03-30T00:48:45.419Z,9.53
2019-03-30T00:51:16.951Z,10.07
2019-03-30T00:53:48.451Z,9.97
2019-03-30T00:56:21.636Z,9.53
2019-03-30T00:58:53.045Z,10.00
2019-03-30T01:01:24.403Z,10.10
2019-03-30T01:03:55.869Z,10.32
2019-03-30T01:06:27.332Z,10.43
2019-03-30T01:08:58.724Z,9.93
2019-03-30T01:11:30.184Z,9.67
2019-03-30T01:14:01.704Z,10.50
2019-03-30T01:16:33.144Z,9.83
2019-03-30T01:19:04.728Z,10.10
2019-03-30T01:21:36.121Z,10.83
2019-03-30T01:24:07.521Z,10.80
2019-03-30T01:26:38.967Z,10.80
2019-03-30T01:29:10.375Z,10.70
2019-03-30T01:31:41.807Z,10.90
2019-03-30T01:34:13.315Z,10.77
2019-03-30T01:36:44.713Z,9.17
2019-03-30T01:39:16.143Z,9.87
2019-03-30T01:41:47.696Z,10.40
2019-03-30T01:44:19.081Z,10.77
2019-03-30T01:46:50.531Z,9.73
2019-03-30T01:49:22.069Z,10.63
2019-03-30T01:51:53.470Z,9.73
2019-03-30T01:54:24.870Z,9.65
2019-03-30T01:56:56.379Z,9.67
2019-03-30T01:59:27.757Z,9.87
2019-03-30T02:01:59.245Z,10.27
2019-03-30T02:04:30.669Z,9.70
2019-03-30T02:07:02.129Z,9.27
2019-03-30T02:09:33.589Z,9.33
2019-03-30T02:12:05.014Z,9.33
2019-03-30T02:14:36.546Z,9.67
2019-03-30T02:17:07.922Z,9.70
2019-03-30T02:19:39.538Z,9.73
2019-03-30T02:22:10.947Z,9.77
2019-03-30T02:24:42.521Z,10.03
2019-03-30T02:27:13.886Z,9.27
2019-03-30T02:29:45.356Z,8.83
2019-03-30T02:32:16.809Z,10.30
2019-03-30T02:34:48.351Z,9.47
2019-03-30T02:37:19.705Z,9.73
2019-03-30T02:39:51.121Z,10.43
2019-03-30T02:42:22.489Z,11.00
2019-03-30T02:44:53.879Z,10.93
2019-03-30T02:47:25.300Z,10.80
2019-03-30T02:49:56.710Z,10.33
2019-03-30T02:52:28.153Z,10.30
2019-03-30T02:54:59.599Z,10.77
2019-03-30T02:57:31.067Z,11.50
2019-03-30T03:00:02.549Z,11.53
2019-03-30T03:02:33.925Z,11.27
2019-03-30T03:05:05.660Z,11.27
2019-03-30T03:07:37.062Z,12.43
2019-03-30T03:10:08.855Z,11.70
2019-03-30T03:12:40.309Z,11.50
2019-03-30T03:15:12.201Z,11.80
2019-03-30T03:17:43.683Z,11.40
2019-03-30T03:20:15.476Z,12.53
2019-03-30T03:22:46.950Z,11.30
2019-03-30T03:25:18.468Z,13.23
2019-03-30T03:27:50.016Z,13.40
2019-03-30T03:30:21.643Z,12.40
2019-03-30T03:32:52.951Z,12.17
2019-03-30T03:35:24.481Z,13.60
2019-03-30T03:37:55.837Z,12.87
2019-03-30T03:40:27.376Z,12.40
2019-03-30T03:42:58.854Z,13.70
2019-03-30T03:45:30.374Z,13.77
2019-03-30T03:48:03.223Z,14.20
2019-03-30T03:50:46.201Z,13.97
2019-03-30T03:53:18.620Z,13.33
2019-03-30T03:55:50.919Z,13.00
2019-03-30T03:58:42.762Z,12.93
2019-03-30T04:01:18.648Z,13.10
2019-03-30T04:03:53.212Z,12.93
2019-03-30T04:06:27.759Z,12.93
2019-03-30T04:09:02.786Z,13.90
2019-03-30T04:11:35.917Z,13.23
2019-03-30T04:14:08.747Z,12.43
2019-03-30T04:16:40.421Z,12.53
2019-03-30T04:19:12.052Z,12.80
2019-03-30T04:21:44.895Z,12.83
2019-03-30T04:24:16.801Z,12.73
2019-03-30T04:26:48.350Z,11.83
2019-03-30T04:29:19.730Z,12.83
2019-03-30T04:31:51.127Z,12.43
2019-03-30T04:34:22.535Z,12.40
2019-03-30T04:36:53.917Z,11.50
2019-03-30T04:39:25.406Z,12.63
2019-03-30T04:41:57.905Z,11.93
2019-03-30T04:44:29.325Z,12.93
2019-03-30T04:47:00.701Z,12.57
2019-03-30T04:49:32.073Z,12.27
2019-03-30T04:52:03.526Z,12.43
2019-03-30T04:54:34.914Z,13.13
2019-03-30T04:57:06.378Z,12.87
2019-03-30T04:59:37.995Z,13.30
2019-03-30T05:02:09.559Z,13.10
2019-03-30T05:04:40.928Z,12.30
2019-03-30T05:07:12.277Z,13.63
2019-03-30T05:09:43.766Z,12.83
2019-03-30T05:12:15.199Z,13.57
2019-03-30T05:14:46.634Z,13.10
2019-03-30T05:17:18.073Z,12.50
2019-03-30T05:19:51.054Z,12.93
2019-03-30T05:22:22.453Z,12.50
2019-03-30T05:24:53.869Z,13.20
2019-03-30T05:27:25.364Z,12.43
2019-03-30T05:29:56.847Z,13.37
2019-03-30T05:32:28.357Z,13.33
2019-03-30T05:34:59.886Z,13.03
2019-03-30T05:37:31.250Z,13.07
2019-03-30T05:40:02.739Z,12.80
2019-03-30T05:42:34.129Z,12.30
2019-03-30T05:45:05.788Z,13.17
2019-03-30T05:47:37.277Z,12.37
2019-03-30T05:50:09.152Z,12.33
2019-03-30T05:52:40.564Z,12.67
2019-03-30T05:55:12.102Z,12.03
2019-03-30T05:57:43.569Z,12.33
2019-03-30T06:00:18.755Z,12.67
2019-03-30T06:02:50.153Z,13.47
2019-03-30T06:05:21.538Z,12.77
2019-03-30T06:07:53.110Z,12.80
2019-03-30T06:10:24.673Z,13.10
2019-03-30T06:12:56.827Z,11.73
2019-03-30T06:15:28.215Z,11.50
2019-03-30T06:17:59.589Z,12.50
2019-03-30T06:20:31.004Z,11.93
2019-03-30T06:23:02.438Z,12.03
2019-03-30T06:25:33.934Z,12.57
2019-03-30T06:28:05.449Z,11.33
2019-03-30T06:30:36.949Z,11.20
2019-03-30T06:33:08.378Z,11.73
2019-03-30T06:35:39.881Z,11.40
2019-03-30T06:38:11.257Z,10.90
2019-03-30T06:40:42.702Z,11.40
2019-03-30T06:43:14.063Z,12.58
2019-03-30T06:45:45.485Z,11.17
2019-03-30T06:48:16.844Z,10.20
2019-03-30T06:50:48.373Z,10.97
2019-03-30T06:53:38.543Z,10.68
2019-03-30T06:56:10.117Z,10.18
2019-03-30T06:58:41.616Z,9.73
2019-03-30T07:01:13.582Z,8.97
2019-03-30T07:03:45.820Z,10.23
2019-03-30T07:06:19.355Z,10.68
2019-03-30T07:08:54.240Z,10.68
2019-03-30T07:11:28.557Z,10.27
2019-03-30T07:14:04.160Z,10.08
2019-03-30T07:16:39.522Z,10.70
2019-03-30T07:19:10.875Z,10.15
2019-03-30T07:21:43.760Z,9.88
2019-03-30T07:24:33.953Z,10.70
2019-03-30T07:27:05.517Z,10.25
2019-03-30T07:29:37.028Z,10.08
2019-03-30T07:32:08.642Z,9.70
2019-03-30T07:34:41.697Z,9.25
2019-03-30T07:37:13.107Z,9.03
2019-03-30T07:39:44.546Z,9.05
2019-03-30T07:42:16.108Z,9.40
2019-03-30T07:44:47.630Z,8.80
2019-03-30T07:47:19.034Z,8.33
2019-03-30T07:49:50.563Z,8.23
2019-03-30T07:52:22.001Z,7.90
2019-03-30T07:54:53.437Z,7.60
2019-03-30T07:57:24.849Z,7.87
2019-03-30T07:59:56.392Z,7.25
2019-03-30T08:02:27.907Z,6.92
2019-03-30T08:04:59.397Z,6.20
2019-03-30T08:07:30.875Z,5.75
2019-03-30T08:10:02.353Z,6.35
2019-03-30T08:12:34.069Z,6.15
2019-03-30T08:15:06.074Z,6.22
2019-03-30T08:17:37.561Z,6.87
2019-03-30T08:20:10.219Z,6.15
2019-03-30T08:22:41.876Z,5.78
2019-03-30T08:25:15.076Z,6.33
2019-03-30T08:27:46.678Z,5.78
2019-03-30T08:30:18.558Z,4.70
2019-03-30T08:32:50.075Z,5.67
2019-03-30T08:35:21.576Z,6.15
2019-03-30T08:37:53.156Z,5.75
2019-03-30T08:40:24.552Z,5.87
2019-03-30T08:42:56.321Z,6.05
2019-03-30T08:45:27.875Z,5.20
2019-03-30T08:47:59.472Z,5.78
2019-03-30T08:50:30.862Z,5.80
2019-03-30T08:53:02.350Z,5.67
2019-03-30T08:55:33.803Z,5.80
2019-03-30T08:58:05.302Z,6.00
2019-03-30T09:00:44.029Z,6.62
2019-03-30T09:03:15.606Z,6.42
2019-03-30T09:06:05.862Z,6.75
2019-03-30T09:08:37.504Z,6.20
2019-03-30T09:11:08.914Z,6.87
2019-03-30T09:13:40.302Z,5.97
2019-03-30T09:16:11.697Z,6.33
2019-03-30T09:18:43.188Z,6.67
2019-03-30T09:21:14.649Z,6.72
2019-03-30T09:23:46.326Z,6.33
2019-03-30T09:26:17.683Z,6.62
2019-03-30T09:28:49.109Z,6.58
2019-03-30T09:31:20.564Z,6.12
2019-03-30T09:33:52.159Z,5.72
2019-03-30T09:36:23.531Z,6.12
2019-03-30T09:38:55.038Z,5.92
2019-03-30T09:41:26.507Z,6.37
2019-03-30T09:43:58.268Z,5.33
2019-03-30T09:46:29.714Z,4.92
2019-03-30T09:49:01.368Z,5.22
2019-03-30T09:51:32.815Z,5.55
2019-03-30T09:54:04.400Z,4.85
2019-03-30T09:56:35.890Z,5.15
2019-03-30T09:59:07.420Z,5.30
2019-03-30T10:01:38.859Z,5.53
2019-03-30T10:04:10.356Z,6.22
2019-03-30T10:06:41.819Z,6.70
2019-03-30T10:09:13.246Z,6.60
2019-03-30T10:11:44.601Z,6.87
2019-03-30T10:14:16.194Z,6.78
2019-03-30T10:16:48.828Z,6.80
2019-03-30T10:19:20.287Z,6.87
2019-03-30T10:21:51.785Z,6.62
2019-03-30T10:24:37.163Z,6.97
2019-03-30T10:26:56.410Z,6.25
2019-03-30T10:29:27.896Z,7.12
2019-03-30T10:32:00.009Z,6.95
2019-03-30T10:34:31.707Z,7.17
2019-03-30T10:37:03.239Z,7.90
2019-03-30T10:39:35.894Z,8.08
2019-03-30T10:42:07.413Z,7.65
2019-03-30T10:44:38.848Z,7.20
2019-03-30T10:47:10.358Z,8.13
2019-03-30T10:49:41.771Z,7.50
2019-03-30T10:52:13.295Z,7.87
2019-03-30T10:54:52.675Z,7.85
2019-03-30T10:57:18.035Z,7.10
2019-03-30T10:59:49.460Z,6.85
2019-03-30T11:02:20.815Z,7.37
2019-03-30T11:04:52.217Z,6.85
2019-03-30T11:07:23.756Z,7.25
2019-03-30T11:09:55.273Z,6.65
2019-03-30T11:12:26.873Z,7.80
2019-03-30T11:14:58.424Z,7.35
2019-03-30T11:17:29.743Z,7.33
2019-03-30T11:20:01.174Z,7.35
2019-03-30T11:22:32.753Z,7.03
2019-03-30T11:25:07.779Z,7.45
2019-03-30T11:27:37.526Z,6.90
2019-03-30T11:30:09.378Z,7.83
2019-03-30T11:32:40.774Z,7.78
2019-03-30T11:35:12.280Z,7.67
2019-03-30T11:37:43.792Z,7.85
2019-03-30T11:40:15.197Z,8.38
2019-03-30T11:42:46.697Z,8.98
2019-03-30T11:45:18.198Z,8.70
2019-03-30T11:47:49.650Z,7.83
2019-03-30T11:50:21.074Z,7.53
2019-03-30T11:52:52.672Z,7.35
2019-03-30T11:55:24.067Z,7.83
2019-03-30T11:57:55.572Z,8.15
2019-03-30T12:00:27.102Z,7.00
2019-03-30T12:02:58.462Z,7.70
2019-03-30T12:05:30.064Z,9.50
2019-03-30T12:08:01.544Z,9.38
2019-03-30T12:10:33.129Z,8.25
2019-03-30T12:13:04.597Z,7.83
2019-03-30T12:15:36.005Z,6.83
2019-03-30T12:18:07.750Z,6.83
2019-03-30T12:20:39.138Z,5.80
2019-03-30T12:23:10.580Z,5.47
2019-03-30T12:25:41.988Z,6.55
2019-03-30T12:28:13.450Z,6.35
2019-03-30T12:30:44.826Z,6.58
2019-03-30T12:33:16.242Z,7.28
2019-03-30T12:35:47.710Z,6.92
2019-03-30T12:38:19.116Z,6.33
2019-03-30T12:40:50.475Z,6.58
2019-03-30T12:43:21.977Z,6.80
2019-03-30T12:45:53.492Z,6.03
2019-03-30T12:48:24.997Z,5.55
2019-03-30T12:50:56.633Z,6.67
2019-03-30T12:53:28.057Z,5.78
2019-03-30T12:55:59.536Z,5.58
2019-03-30T12:58:31.243Z,5.97
2019-03-30T13:01:02.783Z,5.40
2019-03-30T13:03:34.185Z,5.53
2019-03-30T13:06:05.642Z,6.55
2019-03-30T13:08:37.062Z,6.42
2019-03-30T13:11:08.477Z,5.80
2019-03-30T13:13:40.070Z,5.37
2019-03-30T13:16:11.450Z,5.80
2019-03-30T13:18:43.961Z,5.60
2019-03-30T13:21:15.426Z,6.12
2019-03-30T13:23:46.811Z,5.10
2019-03-30T13:26:18.392Z,5.22
2019-03-30T13:28:49.870Z,6.62
2019-03-30T13:31:21.344Z,6.62
2019-03-30T13:33:52.923Z,5.47
2019-03-30T13:36:43.770Z,6.17
2019-03-30T13:39:15.152Z,5.25
2019-03-30T13:41:46.546Z,5.85
2019-03-30T13:44:17.942Z,5.72
2019-03-30T13:46:49.389Z,5.25
2019-03-30T13:49:20.956Z,5.62
2019-03-30T13:51:52.345Z,6.25
2019-03-30T13:54:23.748Z,5.35
2019-03-30T13:56:55.118Z,4.42
2019-03-30T13:59:26.592Z,5.47
2019-03-30T14:02:16.798Z,5.80
2019-03-30T14:04:48.189Z,6.53
2019-03-30T14:07:19.662Z,4.60
2019-03-30T14:09:51.333Z,6.15
2019-03-30T14:12:22.740Z,5.50
2019-03-30T14:14:55.561Z,6.58
2019-03-30T14:17:27.450Z,4.92
2019-03-30T14:19:58.857Z,6.55
2019-03-30T14:22:31.688Z,6.40
2019-03-30T14:25:03.272Z,6.33
2019-03-30T14:27:34.761Z,4.53
2019-03-30T14:30:07.662Z,6.53
2019-03-30T14:32:39.033Z,6.35
2019-03-30T14:35:10.681Z,7.00
2019-03-30T14:37:42.041Z,5.12
2019-03-30T14:40:13.543Z,6.15
2019-03-30T14:42:45.021Z,6.10
2019-03-30T14:45:17.008Z,6.43
2019-03-30T14:47:48.386Z,6.90
2019-03-30T14:50:20.129Z,6.72
2019-03-30T14:52:51.619Z,6.60
2019-03-30T14:55:23.008Z,4.47
2019-03-30T14:57:54.358Z,6.60
2019-03-30T15:00:25.937Z,7.05
2019-03-30T15:02:57.394Z,7.30
2019-03-30T15:05:28.855Z,8.48
2019-03-30T15:08:00.311Z,8.03
2019-03-30T15:10:31.718Z,5.55
2019-03-30T15:13:03.111Z,6.97
2019-03-30T15:15:34.625Z,7.50
2019-03-30T15:18:06.171Z,7.97
2019-03-30T15:20:37.639Z,7.78
2019-03-30T15:23:09.123Z,6.05
2019-03-30T15:25:40.590Z,6.85
2019-03-30T15:28:11.958Z,7.65
2019-03-30T15:30:43.552Z,7.28
2019-03-30T15:33:14.934Z,7.62
2019-03-30T15:35:46.433Z,7.87
2019-03-30T15:38:17.994Z,7.87
2019-03-30T15:40:49.405Z,7.35
2019-03-30T15:43:20.910Z,7.35
2019-03-30T15:45:52.378Z,7.33
2019-03-30T15:48:28.106Z,7.97
2019-03-30T15:50:58.055Z,9.20
2019-03-30T15:53:29.449Z,9.38
2019-03-30T15:56:00.941Z,9.15
2019-03-30T15:58:32.330Z,9.23
2019-03-30T16:01:04.016Z,9.48
2019-03-30T16:03:35.486Z,9.25
2019-03-30T16:06:07.143Z,8.80
2019-03-30T16:08:38.707Z,8.70
2019-03-30T16:11:10.121Z,11.90
2019-03-30T16:13:41.586Z,9.30
2019-03-30T16:16:13.119Z,8.68
2019-03-30T16:18:44.478Z,8.85
2019-03-30T16:21:16.100Z,13.13
2019-03-30T16:23:47.475Z,17.45
2019-03-30T16:26:19.047Z,14.70
2019-03-30T16:28:50.525Z,11.70
2019-03-30T16:31:22.007Z,9.80
2019-03-30T16:33:53.402Z,12.30
2019-03-30T16:36:24.781Z,9.15
2019-03-30T16:38:56.266Z,8.50
2019-03-30T16:41:27.648Z,7.50
2019-03-30T16:43:59.031Z,7.90
2019-03-30T16:46:30.531Z,7.78
2019-03-30T16:49:01.922Z,8.58
2019-03-30T16:51:33.357Z,9.55
2019-03-30T16:54:04.992Z,9.00
2019-03-30T16:56:36.409Z,11.57
2019-03-30T16:59:08.023Z,24.45
2019-03-30T17:01:39.615Z,21.90
2019-03-30T17:04:11.074Z,12.50
2019-03-30T17:06:42.587Z,8.93
2019-03-30T17:09:13.980Z,13.95
2019-03-30T17:11:45.482Z,12.63
2019-03-30T17:14:18.740Z,11.68
2019-03-30T17:16:50.342Z,13.28
2019-03-30T17:19:21.796Z,12.18
2019-03-30T17:21:53.181Z,9.70
2019-03-30T17:24:24.555Z,7.40
2019-03-30T17:26:56.242Z,7.45
2019-03-30T17:29:27.633Z,6.67
2019-03-30T17:31:59.084Z,6.28
2019-03-30T17:34:30.523Z,6.87
2019-03-30T17:37:02.097Z,8.50
2019-03-30T17:39:33.487Z,8.80
2019-03-30T17:42:05.121Z,7.92
2019-03-30T17:44:36.775Z,9.58
2019-03-30T17:47:08.301Z,8.78
2019-03-30T17:49:39.653Z,8.18
2019-03-30T17:52:11.102Z,7.85
2019-03-30T17:54:42.467Z,7.40
2019-03-30T17:57:17.335Z,6.15
2019-03-30T17:59:47.092Z,6.03
2019-03-30T18:02:18.571Z,6.35
2019-03-30T18:04:49.939Z,6.67
2019-03-30T18:07:21.446Z,8.70
2019-03-30T18:09:52.827Z,7.58
2019-03-30T18:12:24.287Z,7.70
2019-03-30T18:14:55.682Z,6.83
2019-03-30T18:17:27.084Z,6.58
2019-03-30T18:19:58.468Z,6.62
2019-03-30T18:22:30.056Z,6.73
2019-03-30T18:25:01.463Z,7.42
2019-03-30T18:27:32.953Z,7.50
2019-03-30T18:30:04.596Z,6.97
2019-03-30T18:32:36.419Z,6.83
2019-03-30T18:35:08.275Z,6.33
2019-03-30T18:37:40.302Z,7.17
2019-03-30T18:40:20.422Z,7.97
2019-03-30T18:42:52.018Z,10.30
2019-03-30T18:45:29.274Z,10.33
2019-03-30T18:48:20.858Z,10.10
2019-03-30T18:50:52.307Z,9.95
2019-03-30T18:53:23.876Z,10.43
2019-03-30T18:55:55.346Z,12.37
2019-03-30T18:58:40.730Z,11.57
2019-03-30T19:01:00.392Z,11.18
2019-03-30T19:03:31.885Z,10.75
2019-03-30T19:06:03.805Z,11.35
2019-03-30T19:08:35.264Z,11.18
2019-03-30T19:11:06.775Z,11.73
2019-03-30T19:13:38.235Z,11.38
2019-03-30T19:16:09.811Z,11.75
2019-03-30T19:18:41.332Z,13.38
2019-03-30T19:21:12.848Z,14.73
2019-03-30T19:23:44.312Z,14.25
2019-03-30T19:26:15.884Z,13.40
2019-03-30T19:28:56.284Z,13.68
2019-03-30T19:31:20.982Z,13.80
2019-03-30T19:33:52.556Z,14.00
2019-03-30T19:36:24.080Z,15.25
2019-03-30T19:38:55.519Z,15.68
2019-03-30T19:41:26.962Z,15.53
2019-03-30T19:43:58.656Z,14.55
2019-03-30T19:46:30.197Z,14.28
2019-03-30T19:49:01.751Z,13.75
2019-03-30T19:51:33.305Z,14.87
2019-03-30T19:54:05.018Z,13.58
2019-03-30T19:56:36.399Z,13.62
2019-03-30T19:59:10.973Z,13.60
2019-03-30T20:01:41.216Z,12.88
2019-03-30T20:04:12.814Z,12.98
2019-03-30T20:06:45.506Z,13.08
2019-03-30T20:09:20.609Z,13.55
2019-03-30T20:11:50.185Z,12.88
2019-03-30T20:14:21.711Z,13.60
2019-03-30T20:16:53.112Z,13.35
2019-03-30T20:19:24.651Z,14.30
2019-03-30T20:21:57.459Z,13.22
2019-03-30T20:24:30.965Z,12.35
2019-03-30T20:27:02.465Z,13.30
2019-03-30T20:29:33.952Z,11.60
2019-03-30T20:32:05.426Z,12.98
2019-03-30T20:34:36.934Z,11.78
2019-03-30T20:37:08.465Z,13.32
2019-03-30T20:39:40.009Z,12.78
2019-03-30T20:42:11.551Z,11.65
2019-03-30T20:44:43.031Z,12.95
2019-03-30T20:47:14.604Z,12.30
2019-03-30T20:49:46.128Z,16.25
2019-03-30T20:52:17.567Z,18.73
2019-03-30T20:54:49.165Z,15.48
2019-03-30T20:57:20.648Z,13.95
2019-03-30T20:59:52.178Z,15.03
2019-03-30T21:02:23.591Z,13.98
2019-03-30T21:04:54.998Z,13.72
2019-03-30T21:07:26.395Z,14.35
2019-03-30T21:09:58.053Z,14.43
2019-03-30T21:12:29.648Z,14.53
2019-03-30T21:15:01.031Z,13.88
2019-03-30T21:17:32.627Z,13.80
2019-03-30T21:20:04.974Z,14.38
2019-03-30T21:22:36.368Z,13.88
2019-03-30T21:25:08.070Z,15.53
2019-03-30T21:27:39.468Z,14.98
2019-03-30T21:30:14.345Z,15.03
2019-03-30T21:32:45.805Z,14.78
2019-03-30T21:35:17.367Z,15.78
2019-03-30T21:37:48.904Z,15.28
2019-03-30T21:40:20.310Z,15.10
2019-03-30T21:42:51.779Z,14.60
2019-03-30T21:45:23.195Z,15.33
2019-03-30T21:47:54.680Z,13.93
2019-03-30T21:50:26.452Z,14.93
2019-03-30T21:52:58.038Z,15.08
2019-03-30T21:55:29.535Z,14.47
2019-03-30T21:58:00.950Z,14.58
2019-03-30T22:00:38.127Z,13.50
2019-03-30T22:03:09.550Z,12.82
2019-03-30T22:05:41.512Z,13.85
2019-03-30T22:08:13.075Z,14.33
2019-03-30T22:10:44.728Z,14.60
2019-03-30T22:13:16.385Z,15.58
2019-03-30T22:15:47.848Z,15.95
2019-03-30T22:18:19.372Z,16.65
2019-03-30T22:20:50.836Z,16.77
2019-03-30T22:23:22.253Z,16.80
2019-03-30T22:25:53.724Z,17.07
2019-03-30T22:28:25.330Z,17.07
2019-03-30T22:30:57.000Z,17.02
2019-03-30T22:33:30.757Z,16.50
2019-03-30T22:36:01.616Z,17.40
2019-03-30T22:38:33.007Z,16.17
2019-03-30T22:41:04.602Z,17.30
2019-03-30T22:43:36.163Z,15.53
2019-03-30T22:46:07.926Z,14.73
2019-03-30T22:48:39.627Z,13.68
2019-03-30T22:51:11.029Z,14.18
2019-03-30T22:53:42.538Z,13.83
2019-03-30T22:56:14.030Z,14.23
2019-03-30T22:58:45.540Z,14.00
2019-03-30T23:01:19.172Z,13.90
2019-03-30T23:03:50.878Z,13.80
2019-03-30T23:06:22.410Z,13.55
2019-03-30T23:08:53.989Z,13.85
2019-03-30T23:11:25.444Z,12.70
2019-03-30T23:13:56.827Z,13.03
2019-03-30T23:16:28.193Z,12.88
2019-03-30T23:18:59.643Z,12.68
2019-03-30T23:21:31.154Z,12.60
2019-03-30T23:24:02.537Z,13.10
2019-03-30T23:26:33.889Z,12.03
2019-03-30T23:29:05.329Z,13.43
2019-03-30T23:31:36.844Z,13.43
2019-03-30T23:34:08.410Z,13.00
2019-03-30T23:36:39.802Z,12.15
2019-03-30T23:39:11.430Z,13.15
2019-03-30T23:41:42.972Z,12.15
2019-03-30T23:44:14.462Z,13.15
2019-03-30T23:46:45.874Z,11.88
2019-03-30T23:49:17.456Z,12.63
2019-03-30T23:51:49.038Z,12.50
2019-03-30T23:54:20.470Z,12.03
2019-03-30T23:56:51.856Z,12.28
2019-03-30T23:59:23.345Z,11.15
